Main page
METAR-TAF:

METAR-TAF

Airports :

Al Najaf International Airport

Najaf, Iraq

latitude: 31-59-23N, longitude: 44-24-15E, elevation: 31 m

Current weather observation

The report was made 58 minutes ago, at 01:00 UTC
Wind 4 kt from the West/Southwest
Temperature 12°C
Humidity 94%
Pressure 1020 hPa
Visibility: 7000 m

METAR: ORNI 190100Z 25004KT 7000 NSC 12/11 Q1020

Time: 04:58 (01:58 UTC)

Forecast

The report was made 9 hours and 58 minutes ago, at 16:00 UTC
Forecast valid from 18 at 18 UTC to 19 at 18 UTC
Wind 12 kt from the Northwest
Visibility: 6000 m

TAF: ORNI 181600Z 1818/1918 32012KT 6000 NSC

Weather observations and forecasts of more than 4000 airports (METAR and TAF reports).

The available stations are represented by yellow and red dots on the map.

Hover mouse over dot to see the name of the station.

Then click to see weather observations and forecasts.

To change the map : click on the green buttons with a black cross to zoom in, on the green button with a dash to zoom out, or on the green arrows for adjacent maps.


METAR-TAF: